sensor_id;sensor_type;location;lat;lon;timestamp;P1;durP1;ratioP1;P2;durP2;ratioP2
40951;SDS011;26682;51.660;19.338;2023-12-07T00:00:04;106.50;;;43.40;;
40951;SDS011;26682;51.660;19.338;2023-12-07T00:02:47;98.07;;;41.17;;
40951;SDS011;26682;51.660;19.338;2023-12-07T00:05:30;92.53;;;39.00;;
40951;SDS011;26682;51.660;19.338;2023-12-07T00:08:12;99.28;;;41.75;;
40951;SDS011;26682;51.660;19.338;2023-12-07T00:10:55;96.05;;;40.28;;
40951;SDS011;26682;51.660;19.338;2023-12-07T00:13:38;87.72;;;38.75;;
40951;SDS011;26682;51.660;19.338;2023-12-07T00:16:20;93.50;;;38.25;;
40951;SDS011;26682;51.660;19.338;2023-12-07T00:19:03;130.88;;;50.20;;
40951;SDS011;26682;51.660;19.338;2023-12-07T00:21:45;137.68;;;50.75;;
40951;SDS011;26682;51.660;19.338;2023-12-07T00:24:28;122.22;;;48.80;;
40951;SDS011;26682;51.660;19.338;2023-12-07T00:27:10;103.75;;;43.92;;
40951;SDS011;26682;51.660;19.338;2023-12-07T00:29:53;106.43;;;43.60;;
40951;SDS011;26682;51.660;19.338;2023-12-07T00:32:35;103.28;;;41.80;;
40951;SDS011;26682;51.660;19.338;2023-12-07T00:35:18;98.38;;;40.47;;
40951;SDS011;26682;51.660;19.338;2023-12-07T00:38:03;99.13;;;42.17;;
40951;SDS011;26682;51.660;19.338;2023-12-07T00:40:48;98.15;;;41.78;;
40951;SDS011;26682;51.660;19.338;2023-12-07T00:43:30;97.78;;;41.17;;
40951;SDS011;26682;51.660;19.338;2023-12-07T00:46:13;95.97;;;41.50;;
40951;SDS011;26682;51.660;19.338;2023-12-07T00:48:55;107.80;;;42.58;;
40951;SDS011;26682;51.660;19.338;2023-12-07T00:51:38;100.60;;;40.83;;
40951;SDS011;26682;51.660;19.338;2023-12-07T00:54:20;102.72;;;41.83;;
40951;SDS011;26682;51.660;19.338;2023-12-07T00:57:03;101.63;;;40.85;;
40951;SDS011;26682;51.660;19.338;2023-12-07T00:59:45;100.05;;;42.63;;
40951;SDS011;26682;51.660;19.338;2023-12-07T01:02:27;112.20;;;44.30;;
40951;SDS011;26682;51.660;19.338;2023-12-07T01:05:10;98.90;;;42.47;;
40951;SDS011;26682;51.660;19.338;2023-12-07T01:07:53;108.40;;;44.00;;
40951;SDS011;26682;51.660;19.338;2023-12-07T01:10:35;112.72;;;44.05;;
40951;SDS011;26682;51.660;19.338;2023-12-07T01:13:18;119.93;;;44.40;;
40951;SDS011;26682;51.660;19.338;2023-12-07T01:16:00;108.25;;;43.83;;
40951;SDS011;26682;51.660;19.338;2023-12-07T01:18:43;105.45;;;46.08;;
40951;SDS011;26682;51.660;19.338;2023-12-07T01:21:26;108.88;;;43.63;;
40951;SDS011;26682;51.660;19.338;2023-12-07T01:24:09;101.00;;;41.95;;
40951;SDS011;26682;51.660;19.338;2023-12-07T01:26:57;104.45;;;41.47;;
40951;SDS011;26682;51.660;19.338;2023-12-07T01:29:40;97.05;;;41.03;;
40951;SDS011;26682;51.660;19.338;2023-12-07T01:32:22;104.53;;;43.35;;
40951;SDS011;26682;51.660;19.338;2023-12-07T01:35:05;102.38;;;41.65;;
40951;SDS011;26682;51.660;19.338;2023-12-07T01:37:48;101.90;;;42.25;;
40951;SDS011;26682;51.660;19.338;2023-12-07T01:40:31;112.15;;;42.13;;
40951;SDS011;26682;51.660;19.338;2023-12-07T01:43:13;103.40;;;41.88;;
40951;SDS011;26682;51.660;19.338;2023-12-07T01:45:56;97.00;;;42.42;;
40951;SDS011;26682;51.660;19.338;2023-12-07T01:48:40;103.50;;;42.85;;
40951;SDS011;26682;51.660;19.338;2023-12-07T01:51:23;102.03;;;41.50;;
40951;SDS011;26682;51.660;19.338;2023-12-07T01:54:05;104.03;;;42.38;;
40951;SDS011;26682;51.660;19.338;2023-12-07T01:56:47;103.18;;;42.33;;
40951;SDS011;26682;51.660;19.338;2023-12-07T01:59:30;100.40;;;42.67;;
40951;SDS011;26682;51.660;19.338;2023-12-07T02:02:13;101.25;;;43.70;;
40951;SDS011;26682;51.660;19.338;2023-12-07T02:04:56;115.03;;;45.13;;
40951;SDS011;26682;51.660;19.338;2023-12-07T02:07:39;103.10;;;41.47;;
40951;SDS011;26682;51.660;19.338;2023-12-07T02:10:24;112.50;;;44.90;;
40951;SDS011;26682;51.660;19.338;2023-12-07T02:13:06;112.55;;;45.78;;
40951;SDS011;26682;51.660;19.338;2023-12-07T02:15:50;118.50;;;48.28;;
40951;SDS011;26682;51.660;19.338;2023-12-07T02:24:20;118.25;;;48.05;;
40951;SDS011;26682;51.660;19.338;2023-12-07T02:27:03;116.57;;;44.97;;
40951;SDS011;26682;51.660;19.338;2023-12-07T02:29:46;111.57;;;44.40;;
40951;SDS011;26682;51.660;19.338;2023-12-07T02:32:28;113.13;;;46.40;;
40951;SDS011;26682;51.660;19.338;2023-12-07T02:35:11;111.43;;;45.97;;
40951;SDS011;26682;51.660;19.338;2023-12-07T02:37:54;111.57;;;44.67;;
40951;SDS011;26682;51.660;19.338;2023-12-07T02:40:37;116.18;;;45.63;;
40951;SDS011;26682;51.660;19.338;2023-12-07T02:43:22;110.97;;;46.22;;
40951;SDS011;26682;51.660;19.338;2023-12-07T02:46:05;119.57;;;45.75;;
40951;SDS011;26682;51.660;19.338;2023-12-07T02:48:47;113.90;;;49.33;;
40951;SDS011;26682;51.660;19.338;2023-12-07T02:51:30;117.13;;;47.22;;
40951;SDS011;26682;51.660;19.338;2023-12-07T02:54:12;109.22;;;44.08;;
40951;SDS011;26682;51.660;19.338;2023-12-07T02:56:55;115.68;;;46.38;;
40951;SDS011;26682;51.660;19.338;2023-12-07T02:59:37;110.15;;;45.83;;
40951;SDS011;26682;51.660;19.338;2023-12-07T03:02:20;114.20;;;47.28;;
40951;SDS011;26682;51.660;19.338;2023-12-07T03:05:03;116.30;;;47.50;;
40951;SDS011;26682;51.660;19.338;2023-12-07T03:07:46;112.43;;;46.00;;
40951;SDS011;26682;51.660;19.338;2023-12-07T03:10:28;119.05;;;44.40;;
40951;SDS011;26682;51.660;19.338;2023-12-07T03:13:11;113.72;;;44.90;;
40951;SDS011;26682;51.660;19.338;2023-12-07T03:15:53;118.63;;;46.08;;
40951;SDS011;26682;51.660;19.338;2023-12-07T03:18:36;120.60;;;45.70;;
40951;SDS011;26682;51.660;19.338;2023-12-07T03:21:19;100.57;;;40.13;;
40951;SDS011;26682;51.660;19.338;2023-12-07T03:24:01;98.82;;;39.67;;
40951;SDS011;26682;51.660;19.338;2023-12-07T03:26:44;99.50;;;40.75;;
40951;SDS011;26682;51.660;19.338;2023-12-07T03:29:26;104.65;;;41.00;;
40951;SDS011;26682;51.660;19.338;2023-12-07T03:32:09;98.30;;;40.42;;
40951;SDS011;26682;51.660;19.338;2023-12-07T03:34:51;107.15;;;41.90;;
40951;SDS011;26682;51.660;19.338;2023-12-07T03:37:34;106.60;;;40.78;;
40951;SDS011;26682;51.660;19.338;2023-12-07T03:40:16;105.60;;;41.35;;
40951;SDS011;26682;51.660;19.338;2023-12-07T03:42:59;105.75;;;41.72;;
40951;SDS011;26682;51.660;19.338;2023-12-07T03:45:42;103.68;;;41.75;;
40951;SDS011;26682;51.660;19.338;2023-12-07T03:48:24;101.28;;;41.40;;
40951;SDS011;26682;51.660;19.338;2023-12-07T03:51:07;105.00;;;40.60;;
40951;SDS011;26682;51.660;19.338;2023-12-07T03:53:49;100.05;;;40.47;;
40951;SDS011;26682;51.660;19.338;2023-12-07T03:56:36;105.38;;;41.15;;
40951;SDS011;26682;51.660;19.338;2023-12-07T03:59:18;108.72;;;44.47;;
40951;SDS011;26682;51.660;19.338;2023-12-07T04:02:01;108.13;;;42.40;;
40951;SDS011;26682;51.660;19.338;2023-12-07T04:04:43;102.72;;;42.83;;
40951;SDS011;26682;51.660;19.338;2023-12-07T04:07:26;107.03;;;42.03;;
40951;SDS011;26682;51.660;19.338;2023-12-07T04:10:08;105.50;;;42.92;;
40951;SDS011;26682;51.660;19.338;2023-12-07T04:12:51;113.78;;;44.90;;
40951;SDS011;26682;51.660;19.338;2023-12-07T04:15:36;117.72;;;45.45;;
40951;SDS011;26682;51.660;19.338;2023-12-07T04:18:19;108.22;;;44.28;;
40951;SDS011;26682;51.660;19.338;2023-12-07T04:21:01;116.00;;;45.95;;
40951;SDS011;26682;51.660;19.338;2023-12-07T04:23:44;117.30;;;47.88;;
40951;SDS011;26682;51.660;19.338;2023-12-07T04:26:26;123.63;;;48.30;;
40951;SDS011;26682;51.660;19.338;2023-12-07T04:29:09;117.57;;;47.20;;
40951;SDS011;26682;51.660;19.338;2023-12-07T04:31:51;100.85;;;41.60;;
40951;SDS011;26682;51.660;19.338;2023-12-07T04:34:34;107.82;;;44.42;;
40951;SDS011;26682;51.660;19.338;2023-12-07T04:37:17;106.85;;;43.97;;
40951;SDS011;26682;51.660;19.338;2023-12-07T04:39:59;108.13;;;43.50;;
40951;SDS011;26682;51.660;19.338;2023-12-07T04:42:41;111.22;;;43.08;;
40951;SDS011;26682;51.660;19.338;2023-12-07T04:45:24;113.20;;;45.55;;
40951;SDS011;26682;51.660;19.338;2023-12-07T04:48:06;101.35;;;43.20;;
40951;SDS011;26682;51.660;19.338;2023-12-07T04:50:49;109.90;;;44.08;;
40951;SDS011;26682;51.660;19.338;2023-12-07T04:53:32;106.68;;;45.42;;
40951;SDS011;26682;51.660;19.338;2023-12-07T04:56:15;108.35;;;45.47;;
40951;SDS011;26682;51.660;19.338;2023-12-07T04:58:58;119.90;;;48.30;;
40951;SDS011;26682;51.660;19.338;2023-12-07T05:01:40;113.13;;;45.67;;
40951;SDS011;26682;51.660;19.338;2023-12-07T05:04:23;107.00;;;43.97;;
40951;SDS011;26682;51.660;19.338;2023-12-07T05:07:06;110.18;;;43.40;;
40951;SDS011;26682;51.660;19.338;2023-12-07T05:09:49;106.10;;;43.70;;
40951;SDS011;26682;51.660;19.338;2023-12-07T05:12:32;106.43;;;46.22;;
40951;SDS011;26682;51.660;19.338;2023-12-07T05:15:15;115.13;;;50.10;;
40951;SDS011;26682;51.660;19.338;2023-12-07T05:17:58;109.68;;;45.70;;
40951;SDS011;26682;51.660;19.338;2023-12-07T05:20:40;113.78;;;43.72;;
40951;SDS011;26682;51.660;19.338;2023-12-07T05:23:23;109.35;;;43.17;;
40951;SDS011;26682;51.660;19.338;2023-12-07T05:26:05;107.78;;;45.97;;
40951;SDS011;26682;51.660;19.338;2023-12-07T05:28:50;104.07;;;43.33;;
40951;SDS011;26682;51.660;19.338;2023-12-07T05:31:32;110.05;;;45.75;;
40951;SDS011;26682;51.660;19.338;2023-12-07T05:34:15;109.93;;;47.08;;
40951;SDS011;26682;51.660;19.338;2023-12-07T05:36:59;107.75;;;44.53;;
40951;SDS011;26682;51.660;19.338;2023-12-07T05:39:42;112.18;;;44.58;;
40951;SDS011;26682;51.660;19.338;2023-12-07T05:42:24;104.63;;;45.38;;
40951;SDS011;26682;51.660;19.338;2023-12-07T05:45:07;100.65;;;42.20;;
40951;SDS011;26682;51.660;19.338;2023-12-07T05:47:51;102.93;;;41.75;;
40951;SDS011;26682;51.660;19.338;2023-12-07T05:50:34;101.15;;;40.55;;
40951;SDS011;26682;51.660;19.338;2023-12-07T05:53:21;107.82;;;40.58;;
40951;SDS011;26682;51.660;19.338;2023-12-07T05:56:04;103.88;;;40.60;;
40951;SDS011;26682;51.660;19.338;2023-12-07T05:58:47;88.50;;;37.85;;
40951;SDS011;26682;51.660;19.338;2023-12-07T06:01:32;98.87;;;39.57;;
40951;SDS011;26682;51.660;19.338;2023-12-07T06:04:15;98.93;;;40.45;;
40951;SDS011;26682;51.660;19.338;2023-12-07T06:06:58;108.05;;;40.88;;
40951;SDS011;26682;51.660;19.338;2023-12-07T06:09:41;99.45;;;39.08;;
40951;SDS011;26682;51.660;19.338;2023-12-07T06:12:24;104.47;;;39.78;;
40951;SDS011;26682;51.660;19.338;2023-12-07T06:15:09;95.20;;;40.08;;
40951;SDS011;26682;51.660;19.338;2023-12-07T06:17:53;97.38;;;39.13;;
40951;SDS011;26682;51.660;19.338;2023-12-07T06:20:37;105.97;;;40.05;;
40951;SDS011;26682;51.660;19.338;2023-12-07T06:23:20;97.80;;;38.83;;
40951;SDS011;26682;51.660;19.338;2023-12-07T06:26:02;105.13;;;40.72;;
40951;SDS011;26682;51.660;19.338;2023-12-07T06:28:46;113.85;;;42.42;;
40951;SDS011;26682;51.660;19.338;2023-12-07T06:31:29;118.20;;;43.35;;
40951;SDS011;26682;51.660;19.338;2023-12-07T06:34:12;117.75;;;43.53;;
40951;SDS011;26682;51.660;19.338;2023-12-07T06:36:54;117.70;;;44.28;;
40951;SDS011;26682;51.660;19.338;2023-12-07T06:39:37;119.93;;;43.60;;
40951;SDS011;26682;51.660;19.338;2023-12-07T06:42:19;130.88;;;49.83;;
40951;SDS011;26682;51.660;19.338;2023-12-07T06:45:03;137.13;;;51.00;;
40951;SDS011;26682;51.660;19.338;2023-12-07T06:47:46;127.07;;;51.05;;
40951;SDS011;26682;51.660;19.338;2023-12-07T06:50:28;134.20;;;50.35;;
40951;SDS011;26682;51.660;19.338;2023-12-07T06:53:11;132.68;;;49.33;;
40951;SDS011;26682;51.660;19.338;2023-12-07T06:55:54;124.55;;;45.85;;
40951;SDS011;26682;51.660;19.338;2023-12-07T06:58:36;133.15;;;49.88;;
40951;SDS011;26682;51.660;19.338;2023-12-07T07:01:19;118.95;;;44.10;;
40951;SDS011;26682;51.660;19.338;2023-12-07T07:04:02;126.40;;;42.50;;
40951;SDS011;26682;51.660;19.338;2023-12-07T07:06:44;126.50;;;46.83;;
40951;SDS011;26682;51.660;19.338;2023-12-07T07:09:27;123.47;;;44.90;;
40951;SDS011;26682;51.660;19.338;2023-12-07T07:12:10;126.70;;;45.95;;
40951;SDS011;26682;51.660;19.338;2023-12-07T07:14:52;127.78;;;46.53;;
40951;SDS011;26682;51.660;19.338;2023-12-07T07:17:35;150.00;;;49.60;;
40951;SDS011;26682;51.660;19.338;2023-12-07T07:20:18;141.82;;;49.90;;
40951;SDS011;26682;51.660;19.338;2023-12-07T07:23:03;139.27;;;50.20;;
40951;SDS011;26682;51.660;19.338;2023-12-07T07:25:45;143.93;;;54.92;;
40951;SDS011;26682;51.660;19.338;2023-12-07T07:28:28;160.13;;;55.47;;
40951;SDS011;26682;51.660;19.338;2023-12-07T07:31:11;144.43;;;49.38;;
40951;SDS011;26682;51.660;19.338;2023-12-07T07:33:54;142.30;;;48.92;;
40951;SDS011;26682;51.660;19.338;2023-12-07T07:36:43;147.15;;;51.45;;
40951;SDS011;26682;51.660;19.338;2023-12-07T07:39:25;151.55;;;55.17;;
40951;SDS011;26682;51.660;19.338;2023-12-07T07:42:08;152.88;;;53.53;;
40951;SDS011;26682;51.660;19.338;2023-12-07T07:44:51;146.48;;;49.70;;
40951;SDS011;26682;51.660;19.338;2023-12-07T07:47:34;140.88;;;49.90;;
40951;SDS011;26682;51.660;19.338;2023-12-07T07:50:17;141.00;;;50.63;;
40951;SDS011;26682;51.660;19.338;2023-12-07T07:53:00;156.13;;;54.67;;
40951;SDS011;26682;51.660;19.338;2023-12-07T07:55:43;143.93;;;49.15;;
40951;SDS011;26682;51.660;19.338;2023-12-07T07:58:26;152.45;;;55.28;;
40951;SDS011;26682;51.660;19.338;2023-12-07T08:01:10;155.98;;;52.28;;
40951;SDS011;26682;51.660;19.338;2023-12-07T08:03:56;153.90;;;52.42;;
40951;SDS011;26682;51.660;19.338;2023-12-07T08:06:39;139.68;;;48.55;;
40951;SDS011;26682;51.660;19.338;2023-12-07T08:09:21;143.63;;;51.72;;
40951;SDS011;26682;51.660;19.338;2023-12-07T08:12:04;141.75;;;50.25;;
40951;SDS011;26682;51.660;19.338;2023-12-07T08:14:55;132.30;;;49.08;;
40951;SDS011;26682;51.660;19.338;2023-12-07T08:17:41;126.70;;;46.40;;
40951;SDS011;26682;51.660;19.338;2023-12-07T08:20:25;140.57;;;51.00;;
40951;SDS011;26682;51.660;19.338;2023-12-07T08:23:08;139.50;;;49.58;;
40951;SDS011;26682;51.660;19.338;2023-12-07T08:25:52;125.70;;;46.47;;
40951;SDS011;26682;51.660;19.338;2023-12-07T08:28:35;141.23;;;50.85;;
40951;SDS011;26682;51.660;19.338;2023-12-07T08:31:21;149.52;;;54.67;;
40951;SDS011;26682;51.660;19.338;2023-12-07T08:34:06;137.43;;;51.58;;
40951;SDS011;26682;51.660;19.338;2023-12-07T08:36:49;139.20;;;52.72;;
40951;SDS011;26682;51.660;19.338;2023-12-07T08:39:31;130.75;;;49.17;;
40951;SDS011;26682;51.660;19.338;2023-12-07T08:42:14;127.68;;;50.25;;
40951;SDS011;26682;51.660;19.338;2023-12-07T08:44:57;122.07;;;48.50;;
40951;SDS011;26682;51.660;19.338;2023-12-07T08:47:40;134.40;;;51.67;;
40951;SDS011;26682;51.660;19.338;2023-12-07T08:50:23;127.07;;;48.97;;
40951;SDS011;26682;51.660;19.338;2023-12-07T08:53:06;128.82;;;50.00;;
40951;SDS011;26682;51.660;19.338;2023-12-07T08:55:49;121.00;;;47.50;;
40951;SDS011;26682;51.660;19.338;2023-12-07T08:58:31;113.35;;;46.88;;
40951;SDS011;26682;51.660;19.338;2023-12-07T09:01:15;128.73;;;50.45;;
40951;SDS011;26682;51.660;19.338;2023-12-07T09:04:13;110.80;;;45.08;;
40951;SDS011;26682;51.660;19.338;2023-12-07T09:06:55;128.88;;;53.45;;
40951;SDS011;26682;51.660;19.338;2023-12-07T09:09:38;96.65;;;42.60;;
40951;SDS011;26682;51.660;19.338;2023-12-07T09:12:21;105.80;;;44.65;;
40951;SDS011;26682;51.660;19.338;2023-12-07T09:15:15;107.75;;;46.42;;
40951;SDS011;26682;51.660;19.338;2023-12-07T09:17:58;98.13;;;41.15;;
40951;SDS011;26682;51.660;19.338;2023-12-07T09:20:40;104.07;;;44.03;;
40951;SDS011;26682;51.660;19.338;2023-12-07T09:23:28;115.13;;;45.85;;
40951;SDS011;26682;51.660;19.338;2023-12-07T09:26:11;93.40;;;42.60;;
40951;SDS011;26682;51.660;19.338;2023-12-07T09:28:54;97.85;;;40.17;;
40951;SDS011;26682;51.660;19.338;2023-12-07T09:31:36;100.72;;;42.92;;
40951;SDS011;26682;51.660;19.338;2023-12-07T09:34:19;93.85;;;40.85;;
40951;SDS011;26682;51.660;19.338;2023-12-07T09:37:05;91.93;;;40.17;;
40951;SDS011;26682;51.660;19.338;2023-12-07T09:39:49;92.38;;;41.15;;
40951;SDS011;26682;51.660;19.338;2023-12-07T09:42:31;93.13;;;40.38;;
40951;SDS011;26682;51.660;19.338;2023-12-07T09:45:18;89.07;;;42.97;;
40951;SDS011;26682;51.660;19.338;2023-12-07T09:48:02;94.65;;;42.90;;
40951;SDS011;26682;51.660;19.338;2023-12-07T09:50:49;83.57;;;39.42;;
40951;SDS011;26682;51.660;19.338;2023-12-07T09:53:31;91.45;;;41.47;;
40951;SDS011;26682;51.660;19.338;2023-12-07T09:56:16;86.63;;;39.75;;
40951;SDS011;26682;51.660;19.338;2023-12-07T09:58:59;81.55;;;39.83;;
40951;SDS011;26682;51.660;19.338;2023-12-07T10:01:42;77.07;;;37.03;;
40951;SDS011;26682;51.660;19.338;2023-12-07T10:04:25;83.75;;;38.53;;
40951;SDS011;26682;51.660;19.338;2023-12-07T10:07:09;82.55;;;38.05;;
40951;SDS011;26682;51.660;19.338;2023-12-07T10:09:51;90.65;;;41.55;;
40951;SDS011;26682;51.660;19.338;2023-12-07T10:12:34;93.07;;;45.70;;
40951;SDS011;26682;51.660;19.338;2023-12-07T10:15:18;110.10;;;55.90;;
40951;SDS011;26682;51.660;19.338;2023-12-07T10:18:02;81.15;;;39.13;;
40951;SDS011;26682;51.660;19.338;2023-12-07T10:20:45;83.22;;;38.17;;
40951;SDS011;26682;51.660;19.338;2023-12-07T10:23:28;97.47;;;44.15;;
40951;SDS011;26682;51.660;19.338;2023-12-07T10:26:13;92.78;;;45.10;;
40951;SDS011;26682;51.660;19.338;2023-12-07T10:29:04;81.45;;;40.40;;
40951;SDS011;26682;51.660;19.338;2023-12-07T10:31:47;83.53;;;42.08;;
40951;SDS011;26682;51.660;19.338;2023-12-07T10:34:30;85.25;;;41.47;;
40951;SDS011;26682;51.660;19.338;2023-12-07T10:37:15;79.68;;;40.50;;
40951;SDS011;26682;51.660;19.338;2023-12-07T10:39:59;74.30;;;36.05;;
40951;SDS011;26682;51.660;19.338;2023-12-07T10:42:42;71.03;;;37.03;;
40951;SDS011;26682;51.660;19.338;2023-12-07T10:45:29;80.85;;;38.45;;
40951;SDS011;26682;51.660;19.338;2023-12-07T10:48:12;72.18;;;36.15;;
40951;SDS011;26682;51.660;19.338;2023-12-07T10:50:56;74.65;;;34.72;;
40951;SDS011;26682;51.660;19.338;2023-12-07T10:53:42;67.27;;;32.90;;
40951;SDS011;26682;51.660;19.338;2023-12-07T10:56:32;65.47;;;34.03;;
40951;SDS011;26682;51.660;19.338;2023-12-07T10:59:22;75.80;;;37.80;;
40951;SDS011;26682;51.660;19.338;2023-12-07T11:02:14;82.18;;;39.53;;
40951;SDS011;26682;51.660;19.338;2023-12-07T11:05:02;73.35;;;40.28;;
40951;SDS011;26682;51.660;19.338;2023-12-07T11:11:08;75.15;;;38.33;;
40951;SDS011;26682;51.660;19.338;2023-12-07T11:14:02;80.45;;;39.88;;
40951;SDS011;26682;51.660;19.338;2023-12-07T11:16:45;93.03;;;46.33;;
40951;SDS011;26682;51.660;19.338;2023-12-07T11:22:15;88.95;;;42.10;;
40951;SDS011;26682;51.660;19.338;2023-12-07T11:24:58;75.38;;;37.70;;
40951;SDS011;26682;51.660;19.338;2023-12-07T11:27:43;72.18;;;36.28;;
40951;SDS011;26682;51.660;19.338;2023-12-07T11:33:14;72.70;;;36.72;;
40951;SDS011;26682;51.660;19.338;2023-12-07T11:36:10;82.90;;;38.95;;
40951;SDS011;26682;51.660;19.338;2023-12-07T11:42:18;79.97;;;39.65;;
40951;SDS011;26682;51.660;19.338;2023-12-07T11:45:03;85.90;;;39.47;;
40951;SDS011;26682;51.660;19.338;2023-12-07T11:48:05;88.40;;;41.97;;
40951;SDS011;26682;51.660;19.338;2023-12-07T11:53:38;94.22;;;43.10;;
40951;SDS011;26682;51.660;19.338;2023-12-07T11:56:20;88.00;;;41.67;;
40951;SDS011;26682;51.660;19.338;2023-12-07T11:59:04;77.55;;;39.75;;
40951;SDS011;26682;51.660;19.338;2023-12-07T12:01:47;78.57;;;38.35;;
40951;SDS011;26682;51.660;19.338;2023-12-07T12:04:30;84.85;;;38.55;;
40951;SDS011;26682;51.660;19.338;2023-12-07T12:07:12;83.30;;;40.92;;
40951;SDS011;26682;51.660;19.338;2023-12-07T12:09:55;79.22;;;40.92;;
40951;SDS011;26682;51.660;19.338;2023-12-07T12:12:37;85.22;;;40.13;;
40951;SDS011;26682;51.660;19.338;2023-12-07T12:15:22;82.00;;;39.90;;
40951;SDS011;26682;51.660;19.338;2023-12-07T12:18:05;86.15;;;40.85;;
40951;SDS011;26682;51.660;19.338;2023-12-07T12:20:50;87.57;;;43.03;;
40951;SDS011;26682;51.660;19.338;2023-12-07T12:23:33;85.32;;;42.22;;
40951;SDS011;26682;51.660;19.338;2023-12-07T12:26:15;74.47;;;37.60;;
40951;SDS011;26682;51.660;19.338;2023-12-07T12:28:59;72.90;;;36.10;;
40951;SDS011;26682;51.660;19.338;2023-12-07T12:31:43;76.28;;;37.50;;
40951;SDS011;26682;51.660;19.338;2023-12-07T12:34:26;81.30;;;42.20;;
40951;SDS011;26682;51.660;19.338;2023-12-07T12:37:08;82.45;;;40.05;;
40951;SDS011;26682;51.660;19.338;2023-12-07T12:39:54;80.45;;;40.42;;
40951;SDS011;26682;51.660;19.338;2023-12-07T12:42:36;89.68;;;44.08;;
40951;SDS011;26682;51.660;19.338;2023-12-07T12:45:19;86.75;;;42.08;;
40951;SDS011;26682;51.660;19.338;2023-12-07T12:48:02;95.65;;;44.70;;
40951;SDS011;26682;51.660;19.338;2023-12-07T12:50:46;101.43;;;48.85;;
40951;SDS011;26682;51.660;19.338;2023-12-07T12:53:30;108.53;;;53.95;;
40951;SDS011;26682;51.660;19.338;2023-12-07T12:56:12;96.28;;;48.67;;
40951;SDS011;26682;51.660;19.338;2023-12-07T12:58:57;83.07;;;41.40;;
40951;SDS011;26682;51.660;19.338;2023-12-07T13:01:46;84.93;;;42.30;;
40951;SDS011;26682;51.660;19.338;2023-12-07T13:04:30;107.72;;;52.63;;
40951;SDS011;26682;51.660;19.338;2023-12-07T13:07:22;108.30;;;53.95;;
40951;SDS011;26682;51.660;19.338;2023-12-07T13:10:07;92.10;;;43.63;;
40951;SDS011;26682;51.660;19.338;2023-12-07T13:12:50;90.47;;;45.35;;
40951;SDS011;26682;51.660;19.338;2023-12-07T13:15:33;138.60;;;68.43;;
40951;SDS011;26682;51.660;19.338;2023-12-07T13:18:17;263.27;;;117.07;;
40951;SDS011;26682;51.660;19.338;2023-12-07T13:21:00;126.55;;;61.55;;
40951;SDS011;26682;51.660;19.338;2023-12-07T13:23:44;159.27;;;69.20;;
40951;SDS011;26682;51.660;19.338;2023-12-07T13:26:28;120.15;;;59.53;;
40951;SDS011;26682;51.660;19.338;2023-12-07T13:29:11;114.05;;;54.55;;
40951;SDS011;26682;51.660;19.338;2023-12-07T13:32:05;120.97;;;53.67;;
40951;SDS011;26682;51.660;19.338;2023-12-07T13:34:47;117.22;;;56.25;;
40951;SDS011;26682;51.660;19.338;2023-12-07T13:37:31;118.90;;;56.05;;
40951;SDS011;26682;51.660;19.338;2023-12-07T13:40:18;111.75;;;51.75;;
40951;SDS011;26682;51.660;19.338;2023-12-07T13:43:00;142.20;;;67.10;;
40951;SDS011;26682;51.660;19.338;2023-12-07T13:45:43;127.28;;;58.13;;
40951;SDS011;26682;51.660;19.338;2023-12-07T13:48:25;177.55;;;80.90;;
40951;SDS011;26682;51.660;19.338;2023-12-07T13:51:08;283.60;;;123.80;;
40951;SDS011;26682;51.660;19.338;2023-12-07T13:53:52;474.33;;;206.52;;
40951;SDS011;26682;51.660;19.338;2023-12-07T13:56:42;313.25;;;134.30;;
40951;SDS011;26682;51.660;19.338;2023-12-07T13:59:25;269.67;;;123.97;;
40951;SDS011;26682;51.660;19.338;2023-12-07T14:02:07;213.55;;;96.65;;
40951;SDS011;26682;51.660;19.338;2023-12-07T14:04:50;204.57;;;101.55;;
40951;SDS011;26682;51.660;19.338;2023-12-07T14:07:33;197.38;;;95.57;;
40951;SDS011;26682;51.660;19.338;2023-12-07T14:10:16;139.75;;;62.25;;
40951;SDS011;26682;51.660;19.338;2023-12-07T14:12:58;155.25;;;71.80;;
40951;SDS011;26682;51.660;19.338;2023-12-07T14:15:41;171.73;;;81.75;;
40951;SDS011;26682;51.660;19.338;2023-12-07T14:18:27;178.10;;;89.15;;
40951;SDS011;26682;51.660;19.338;2023-12-07T14:21:11;149.35;;;71.80;;
40951;SDS011;26682;51.660;19.338;2023-12-07T14:24:11;137.95;;;61.13;;
40951;SDS011;26682;51.660;19.338;2023-12-07T14:26:54;133.90;;;55.25;;
40951;SDS011;26682;51.660;19.338;2023-12-07T14:29:37;132.98;;;59.13;;
40951;SDS011;26682;51.660;19.338;2023-12-07T14:32:20;152.27;;;67.00;;
40951;SDS011;26682;51.660;19.338;2023-12-07T14:35:04;188.82;;;83.70;;
40951;SDS011;26682;51.660;19.338;2023-12-07T14:37:47;191.63;;;88.95;;
40951;SDS011;26682;51.660;19.338;2023-12-07T14:40:32;197.57;;;90.68;;
40951;SDS011;26682;51.660;19.338;2023-12-07T14:43:16;186.18;;;89.57;;
40951;SDS011;26682;51.660;19.338;2023-12-07T14:46:03;171.90;;;78.88;;
40951;SDS011;26682;51.660;19.338;2023-12-07T14:51:33;164.80;;;71.35;;
40951;SDS011;26682;51.660;19.338;2023-12-07T14:54:17;171.30;;;76.05;;
40951;SDS011;26682;51.660;19.338;2023-12-07T14:57:07;148.95;;;62.30;;
40951;SDS011;26682;51.660;19.338;2023-12-07T14:59:53;141.85;;;60.00;;
40951;SDS011;26682;51.660;19.338;2023-12-07T15:02:36;145.07;;;60.47;;
40951;SDS011;26682;51.660;19.338;2023-12-07T15:05:22;145.70;;;60.80;;
40951;SDS011;26682;51.660;19.338;2023-12-07T15:08:05;135.85;;;57.33;;
40951;SDS011;26682;51.660;19.338;2023-12-07T15:10:49;149.70;;;57.60;;
40951;SDS011;26682;51.660;19.338;2023-12-07T15:13:37;170.93;;;70.43;;
40951;SDS011;26682;51.660;19.338;2023-12-07T15:16:20;180.55;;;73.45;;
40951;SDS011;26682;51.660;19.338;2023-12-07T15:19:02;201.95;;;82.85;;
40951;SDS011;26682;51.660;19.338;2023-12-07T15:21:45;236.32;;;93.93;;
40951;SDS011;26682;51.660;19.338;2023-12-07T15:24:28;644.67;;;288.67;;
40951;SDS011;26682;51.660;19.338;2023-12-07T15:27:17;348.75;;;140.02;;
40951;SDS011;26682;51.660;19.338;2023-12-07T15:30:00;184.43;;;76.82;;
40951;SDS011;26682;51.660;19.338;2023-12-07T15:32:50;165.38;;;71.88;;
40951;SDS011;26682;51.660;19.338;2023-12-07T15:35:33;178.40;;;80.43;;
40951;SDS011;26682;51.660;19.338;2023-12-07T15:38:16;186.30;;;80.65;;
40951;SDS011;26682;51.660;19.338;2023-12-07T15:40:59;173.20;;;73.43;;
40951;SDS011;26682;51.660;19.338;2023-12-07T15:43:45;169.30;;;74.25;;
40951;SDS011;26682;51.660;19.338;2023-12-07T15:46:27;185.55;;;79.57;;
40951;SDS011;26682;51.660;19.338;2023-12-07T15:49:10;168.73;;;73.28;;
40951;SDS011;26682;51.660;19.338;2023-12-07T15:51:53;163.70;;;69.53;;
40951;SDS011;26682;51.660;19.338;2023-12-07T15:54:40;165.35;;;73.63;;